Time;durP1;ratioP1;P1;durP2;ratioP2;P2;SDS_P1;SDS_P2;PMS_P1;PMS_P2;Temp;Humidity;BMP_temperature;BMP_pressure;BME280_temperature;BME280_humidity;BME280_pressure;Samples;Min_cycle;Max_cycle;Signal;HPM_P1;HPM_P2
2023/07/27 00:01:11;;;;;;;3.20;2.55;;;13.60;36.80;;;;;;10360756;28;20223;-77
2023/07/27 00:06:33;;;;;;;4.38;2.90;;;13.60;1.00;;;;;;10360934;28;20212;-76
2023/07/27 00:11:55;;;;;;;9.98;5.88;;;13.60;1.00;;;;;;10357346;28;20206;-76
2023/07/27 00:17:17;;;;;;;6.00;3.22;;;13.60;99.90;;;;;;10320989;28;20372;-76
2023/07/27 00:22:38;;;;;;;4.15;2.13;;;13.60;99.90;;;;;;10319785;28;20232;-75
2023/07/27 00:27:59;;;;;;;2.70;1.98;;;13.60;1.00;;;;;;10380389;28;20225;-77
2023/07/27 00:33:21;;;;;;;5.63;3.33;;;13.60;1.00;;;;;;10370100;28;20266;-76
2023/07/27 00:38:42;;;;;;;4.88;2.92;;;13.50;1.00;;;;;;10331004;28;20223;-76
2023/07/27 00:44:04;;;;;;;3.35;2.10;;;13.50;50.70;;;;;;10364364;28;20208;-75
2023/07/27 00:49:27;;;;;;;5.20;2.50;;;13.50;1.00;;;;;;10399541;28;20196;-76
2023/07/27 00:54:48;;;;;;;2.33;1.90;;;13.40;42.70;;;;;;10398798;28;20193;-75
2023/07/27 01:00:10;;;;;;;4.32;2.85;;;13.40;99.90;;;;;;10353309;28;20233;-75
2023/07/27 01:05:32;;;;;;;5.68;2.15;;;13.40;99.90;;;;;;10373768;28;20387;-75
2023/07/27 01:11:01;;;;;;;3.60;1.98;;;13.40;95.30;;;;;;10371819;28;20233;-76
2023/07/27 01:16:48;;;;;;;4.60;2.08;;;13.30;99.90;;;;;;10384551;28;20213;-76
2023/07/27 01:22:33;;;;;;;2.78;1.92;;;13.30;1.00;;;;;;10411473;28;20321;-75
2023/07/27 01:28:16;;;;;;;3.58;2.03;;;13.30;23.10;;;;;;10396700;28;20254;-75
2023/07/27 01:33:45;;;;;;;2.95;1.85;;;13.20;1.00;;;;;;10389869;28;20291;-76
2023/07/27 01:39:09;;;;;;;3.20;2.08;;;13.10;99.90;;;;;;10356183;28;20225;-76
2023/07/27 01:44:32;;;;;;;2.70;2.05;;;13.10;1.00;;;;;;10359308;28;20204;-76
2023/07/27 01:49:54;;;;;;;4.07;2.17;;;13.10;1.00;;;;;;10358239;28;20394;-75
2023/07/27 01:55:16;;;;;;;2.00;1.80;;;13.00;1.00;;;;;;10355451;28;20216;-76
2023/07/27 02:00:38;;;;;;;2.95;2.10;;;13.00;99.90;;;;;;10355505;28;20334;-75
2023/07/27 02:06:00;;;;;;;2.70;1.97;;;12.90;99.90;;;;;;10352152;28;20233;-75
2023/07/27 02:11:23;;;;;;;3.63;2.03;;;12.90;1.00;;;;;;10354685;28;20212;-75
2023/07/27 02:16:50;;;;;;;3.47;2.07;;;12.80;99.90;;;;;;10354391;28;20199;-77
2023/07/27 02:22:12;;;;;;;3.55;2.30;;;12.70;99.90;;;;;;10353060;28;20235;-76
2023/07/27 02:27:33;;;;;;;2.28;1.70;;;12.80;98.40;;;;;;10368021;28;20197;-77
2023/07/27 02:32:55;;;;;;;1.77;1.60;;;12.80;99.90;;;;;;10352790;28;20343;-75
2023/07/27 02:38:16;;;;;;;3.90;1.80;;;12.70;1.00;;;;;;10367644;28;20275;-76
2023/07/27 02:43:38;;;;;;;2.95;1.90;;;12.70;99.90;;;;;;10356278;28;20207;-75
2023/07/27 02:49:01;;;;;;;2.70;1.80;;;12.70;1.00;;;;;;10368555;28;20573;-76
2023/07/27 02:54:22;;;;;;;2.90;2.28;;;12.60;10.60;;;;;;10368663;28;20193;-75
2023/07/27 02:59:43;;;;;;;4.37;2.63;;;12.50;1.00;;;;;;10365038;28;20233;-76
2023/07/27 03:05:05;;;;;;;2.95;1.77;;;12.30;1.00;;;;;;10343431;28;20193;-75
2023/07/27 03:10:27;;;;;;;6.30;2.25;;;12.40;1.00;;;;;;10357162;28;20227;-76
2023/07/27 03:15:48;;;;;;;3.30;2.27;;;12.30;1.00;;;;;;10366061;28;20365;-76
2023/07/27 03:21:10;;;;;;;3.55;1.85;;;12.30;1.00;;;;;;10329076;28;20239;-76
2023/07/27 03:26:31;;;;;;;3.83;2.10;;;12.30;99.90;;;;;;10327376;28;20429;-75
2023/07/27 03:31:53;;;;;;;2.63;2.30;;;12.20;99.90;;;;;;10394198;28;20278;-75
2023/07/27 03:37:14;;;;;;;2.83;2.20;;;12.20;1.00;;;;;;10356312;28;20212;-77
2023/07/27 03:42:35;;;;;;;2.17;1.85;;;12.20;65.80;;;;;;10401572;28;20224;-76
2023/07/27 03:47:57;;;;;;;2.53;2.25;;;12.20;1.00;;;;;;10380025;28;20208;-77
2023/07/27 03:53:19;;;;;;;2.75;2.10;;;12.20;99.90;;;;;;10359894;28;20359;-75
2023/07/27 03:58:40;;;;;;;4.15;2.60;;;12.20;99.90;;;;;;10358730;28;20494;-76
2023/07/27 04:04:02;;;;;;;3.47;2.80;;;12.30;1.00;;;;;;10359779;28;20562;-76
2023/07/27 04:09:23;;;;;;;4.40;3.03;;;12.40;1.00;;;;;;10374019;28;20228;-77
2023/07/27 04:14:44;;;;;;;9.90;6.18;;;12.50;1.00;;;;;;10319913;28;20217;-76
2023/07/27 04:20:07;;;;;;;5.63;3.50;;;12.50;99.90;;;;;;10351750;28;20229;-76
2023/07/27 04:25:29;;;;;;;6.50;4.70;;;12.60;1.00;;;;;;10360032;28;20364;-77
2023/07/27 04:30:50;;;;;;;5.10;3.00;;;12.60;1.00;;;;;;10393414;28;20269;-78
2023/07/27 04:36:11;;;;;;;4.20;3.08;;;12.70;99.90;;;;;;10360866;28;20197;-76
2023/07/27 04:41:32;;;;;;;4.53;2.92;;;12.90;84.00;;;;;;10356227;28;20248;-77
2023/07/27 04:46:54;;;;;;;4.82;3.03;;;13.10;1.00;;;;;;10357080;28;20197;-78
2023/07/27 04:52:15;;;;;;;4.07;2.75;;;13.20;1.00;;;;;;10357834;28;20194;-77
2023/07/27 04:57:36;;;;;;;4.28;2.75;;;13.30;1.00;;;;;;10341495;28;20208;-77
2023/07/27 05:02:59;;;;;;;2.80;2.22;;;13.50;19.10;;;;;;10371139;28;20248;-77
2023/07/27 05:08:20;;;;;;;3.05;2.05;;;13.50;1.00;;;;;;10358325;28;20209;-78
2023/07/27 05:13:41;;;;;;;5.95;2.50;;;13.60;1.00;;;;;;10360477;28;20206;-76
2023/07/27 05:19:03;;;;;;;6.45;2.85;;;13.70;1.00;;;;;;10342163;28;20500;-76
2023/07/27 05:24:24;;;;;;;3.75;2.45;;;13.80;99.90;;;;;;10357479;28;20374;-78
2023/07/27 05:29:45;;;;;;;5.25;2.40;;;13.90;1.00;;;;;;10379099;28;20238;-78
2023/07/27 05:35:07;;;;;;;2.83;2.20;;;13.90;1.40;;;;;;10355720;28;20243;-77
2023/07/27 05:40:28;;;;;;;5.90;2.10;;;14.00;99.90;;;;;;10400539;28;20247;-76
2023/07/27 05:45:50;;;;;;;2.92;2.10;;;14.10;99.90;;;;;;10397218;28;20366;-77
2023/07/27 05:51:11;;;;;;;5.35;2.42;;;14.30;99.90;;;;;;10350377;28;20209;-79
2023/07/27 05:56:32;;;;;;;2.97;1.88;;;14.40;99.90;;;;;;10354347;28;20349;-77
2023/07/27 06:01:53;;;;;;;3.33;2.28;;;14.60;99.90;;;;;;10355742;28;20254;-76
2023/07/27 06:07:15;;;;;;;2.78;1.90;;;14.70;99.90;;;;;;10354459;28;20254;-77
2023/07/27 06:12:36;;;;;;;4.03;2.08;;;14.90;1.00;;;;;;10367727;28;20208;-77
2023/07/27 06:17:57;;;;;;;3.85;1.90;;;15.10;1.00;;;;;;10375690;28;20357;-77
2023/07/27 06:23:19;;;;;;;3.47;2.08;;;15.30;99.90;;;;;;10388699;28;20585;-76
2023/07/27 06:28:40;;;;;;;3.45;2.08;;;15.40;99.90;;;;;;10393735;28;20353;-79
2023/07/27 06:34:01;;;;;;;2.25;1.40;;;15.70;99.90;;;;;;10396375;28;20265;-77
2023/07/27 06:39:22;;;;;;;2.72;1.50;;;16.10;1.00;;;;;;10395439;28;20289;-77
2023/07/27 06:44:44;;;;;;;1.92;1.40;;;16.60;1.00;;;;;;10388189;28;20290;-79
2023/07/27 06:50:06;;;;;;;1.55;1.25;;;17.30;99.90;;;;;;10394115;28;20248;-77
2023/07/27 06:55:28;;;;;;;2.67;1.40;;;18.10;1.00;;;;;;10378776;28;20251;-80
2023/07/27 07:00:49;;;;;;;3.13;1.50;;;18.50;1.00;;;;;;10367098;28;20285;-77
2023/07/27 07:06:11;;;;;;;1.92;1.40;;;19.20;1.00;;;;;;10367504;28;20206;-80
2023/07/27 07:11:32;;;;;;;1.40;1.23;;;19.70;1.00;;;;;;10339487;28;20209;-79
2023/07/27 07:16:53;;;;;;;3.22;1.23;;;20.20;1.00;;;;;;10382143;28;20220;-79
2023/07/27 07:22:15;;;;;;;2.70;1.25;;;20.60;1.00;;;;;;10409433;28;20299;-78
2023/07/27 07:27:36;;;;;;;2.30;1.13;;;21.10;1.00;;;;;;10388766;28;20201;-78
2023/07/27 07:32:58;;;;;;;2.55;1.10;;;21.40;1.00;;;;;;10355551;28;20225;-81
2023/07/27 07:38:19;;;;;;;2.78;1.20;;;21.70;99.90;;;;;;10352049;28;20220;-78
2023/07/27 07:43:41;;;;;;;3.03;1.23;;;22.00;99.90;;;;;;10373446;28;20217;-87
2023/07/27 07:49:02;;;;;;;1.83;0.98;;;22.30;99.90;;;;;;10346131;28;20272;-79
2023/07/27 07:54:24;;;;;;;1.48;1.30;;;22.40;99.90;;;;;;10345837;28;20229;-77
2023/07/27 07:59:45;;;;;;;6.35;1.20;;;22.80;99.90;;;;;;10305270;28;20238;-78
2023/07/27 08:05:07;;;;;;;3.88;1.88;;;23.10;99.90;;;;;;10359331;28;20435;-76
2023/07/27 08:10:28;;;;;;;2.78;1.13;;;23.60;99.90;;;;;;10368807;28;20208;-76
2023/07/27 08:15:53;;;;;;;1.88;1.20;;;23.90;99.90;;;;;;10338162;28;20292;-76
2023/07/27 08:21:15;;;;;;;3.15;1.52;;;24.30;99.90;;;;;;10371299;28;20214;-77
2023/07/27 08:26:37;;;;;;;1.70;1.10;;;24.60;99.90;;;;;;10352543;28;20206;-79
2023/07/27 08:31:58;;;;;;;1.15;0.95;;;25.10;99.90;;;;;;10353354;28;20463;-78
2023/07/27 08:37:19;;;;;;;3.60;1.20;;;24.90;99.90;;;;;;10360606;28;20497;-81
2023/07/27 08:42:43;;;;;;;4.45;1.75;;;25.00;99.90;;;;;;10354484;28;20236;-76
2023/07/27 08:48:06;;;;;;;1.63;1.05;;;25.40;99.90;;;;;;10369221;28;20197;-79
2023/07/27 08:53:28;;;;;;;1.20;0.80;;;25.60;99.90;;;;;;10385539;28;20198;-81
2023/07/27 08:58:49;;;;;;;2.20;0.88;;;25.50;99.90;;;;;;10370340;28;20214;-78
2023/07/27 09:04:10;;;;;;;4.00;1.00;;;25.10;99.90;;;;;;10351254;28;20237;-77
2023/07/27 09:09:33;;;;;;;2.28;1.15;;;24.50;99.90;;;;;;10337098;28;20257;-77
2023/07/27 09:14:54;;;;;;;3.58;1.10;;;23.30;99.90;;;;;;10338854;28;20204;-77
2023/07/27 09:20:15;;;;;;;3.85;1.50;;;23.40;99.90;;;;;;10366295;28;20263;-80
2023/07/27 09:50:19;;;;;;;2.38;1.50;;;21.50;99.90;;;;;;10617494;27;20580;-76
2023/07/27 09:55:41;;;;;;;8.68;5.60;;;21.30;99.90;;;;;;10606366;27;20233;-77
2023/07/27 10:01:02;;;;;;;1.17;1.08;;;21.20;99.90;;;;;;10586817;28;20213;-79
2023/07/27 10:06:29;;;;;;;2.10;1.27;;;21.90;99.90;;;;;;10565064;28;20459;-78
2023/07/27 10:11:55;;;;;;;2.40;1.33;;;23.20;99.90;;;;;;10571411;28;20206;-75
2023/07/27 10:17:17;;;;;;;7.22;1.40;;;23.90;99.90;;;;;;10561883;28;20512;-76
2023/07/27 10:22:38;;;;;;;2.42;0.80;;;23.10;99.90;;;;;;10572498;28;20206;-75
2023/07/27 10:28:00;;;;;;;2.38;1.05;;;23.30;99.90;;;;;;10558453;28;20253;-80
2023/07/27 10:33:26;;;;;;;1.13;1.00;;;24.30;99.90;;;;;;10574245;28;20243;-76
2023/07/27 10:38:54;;;;;;;1.40;1.30;;;25.00;99.90;;;;;;10576338;28;20206;-75
2023/07/27 10:44:16;;;;;;;3.65;1.10;;;24.70;99.90;;;;;;10559305;28;20240;-76
2023/07/27 10:49:43;;;;;;;3.17;0.90;;;24.40;99.90;;;;;;10554818;28;20250;-76
2023/07/27 10:55:08;;;;;;;3.33;0.80;;;23.80;99.90;;;;;;10546462;28;20210;-74
2023/07/27 11:00:36;;;;;;;1.50;1.00;;;23.70;99.90;;;;;;10601717;28;20240;-76
2023/07/27 11:06:04;;;;;;;5.53;1.25;;;24.40;99.90;;;;;;10555991;28;20251;-76
2023/07/27 11:11:27;;;;;;;5.43;1.42;;;24.40;99.90;;;;;;10520067;28;20260;-76
2023/07/27 11:16:51;;;;;;;8.52;1.30;;;25.20;99.90;;;;;;10520969;28;20215;-75
2023/07/27 11:22:13;;;;;;;7.20;1.20;;;25.70;99.90;;;;;;10518756;28;20191;-85
2023/07/27 11:27:37;;;;;;;8.52;1.70;;;26.00;99.90;;;;;;10534944;28;20283;-81
2023/07/27 11:33:02;;;;;;;8.65;4.65;;;25.20;99.90;;;;;;10560312;28;20202;-76
2023/07/27 11:38:24;;;;;;;3.78;1.73;;;24.30;99.90;;;;;;10556430;28;20291;-81
2023/07/27 11:43:51;;;;;;;4.70;1.20;;;24.60;99.90;;;;;;10599553;28;20247;-79
2023/07/27 11:49:13;;;;;;;13.05;1.67;;;25.50;99.90;;;;;;10528001;28;20249;-79
2023/07/27 11:54:40;;;;;;;10.93;2.00;;;26.10;99.90;;;;;;10517632;28;20187;-81
2023/07/27 12:00:11;;;;;;;1.95;0.90;;;25.70;99.90;;;;;;10583271;28;20194;-80
2023/07/27 12:05:33;;;;;;;3.05;1.00;;;26.00;99.90;;;;;;10582956;28;20205;-78
2023/07/27 12:10:59;;;;;;;2.58;0.80;;;26.10;99.90;;;;;;10562830;27;20198;-80
2023/07/27 12:16:23;;;;;;;3.13;1.10;;;25.50;99.90;;;;;;10589447;27;20236;-82
2023/07/27 12:21:47;;;;;;;2.55;0.95;;;24.60;99.90;;;;;;10610993;27;20186;-80
2023/07/27 12:27:08;;;;;;;4.47;1.45;;;24.00;99.90;;;;;;10577012;27;20205;-76
2023/07/27 12:32:32;;;;;;;2.00;1.20;;;23.50;99.90;;;;;;10604925;27;20208;-84
2023/07/27 12:37:58;;;;;;;3.75;1.27;;;23.20;99.90;;;;;;10557996;28;20237;-82
2023/07/27 12:43:40;;;;;;;1.65;1.10;;;22.80;99.90;;;;;;10603222;27;20197;-77
2023/07/27 12:49:01;;;;;;;2.55;1.30;;;22.10;99.90;;;;;;10575848;27;20234;-76
2023/07/27 12:54:23;;;;;;;3.00;1.40;;;21.50;99.90;;;;;;10585907;27;20196;-77
2023/07/27 12:59:44;;;;;;;1.88;1.52;;;21.10;1.00;;;;;;10614005;27;20232;-78
2023/07/27 13:05:12;;;;;;;4.90;2.30;;;20.90;99.90;;;;;;10560521;28;20209;-79
2023/07/27 13:10:33;;;;;;;2.78;1.70;;;20.90;99.90;;;;;;10580146;28;20272;-77
2023/07/27 13:15:54;;;;;;;2.08;1.20;;;20.90;99.90;;;;;;10548143;28;20206;-80
2023/07/27 13:21:16;;;;;;;4.15;2.22;;;20.80;1.00;;;;;;10540432;28;20199;-81
2023/07/27 13:26:37;;;;;;;2.45;2.10;;;20.80;1.00;;;;;;10576975;28;20559;-78
2023/07/27 13:31:58;;;;;;;5.32;1.80;;;20.70;1.00;;;;;;10604958;27;20190;-76
2023/07/27 13:37:19;;;;;;;4.05;1.98;;;21.00;1.00;;;;;;10593176;28;20437;-76
2023/07/27 13:42:40;;;;;;;6.30;1.67;;;20.90;1.00;;;;;;10576758;28;20285;-79
2023/07/27 13:48:03;;;;;;;2.67;1.35;;;21.20;1.00;;;;;;10554754;28;20242;-77
2023/07/27 13:53:29;;;;;;;1.45;1.02;;;21.50;1.00;;;;;;10562680;28;20212;-82
2023/07/27 13:58:50;;;;;;;1.60;1.50;;;21.40;1.00;;;;;;10603307;28;20224;-77
2023/07/27 14:04:11;;;;;;;1.15;1.00;;;21.70;99.90;;;;;;10573662;28;20198;-75
2023/07/27 14:09:32;;;;;;;1.52;1.33;;;22.20;99.90;;;;;;10580693;28;20250;-75
2023/07/27 14:14:54;;;;;;;1.48;1.17;;;22.30;99.90;;;;;;10559866;28;20235;-82
2023/07/27 14:20:15;;;;;;;1.42;1.33;;;21.90;99.90;;;;;;10563544;28;20538;-76
2023/07/27 14:25:36;;;;;;;1.20;1.10;;;21.40;99.90;;;;;;10572914;28;20208;-79
2023/07/27 14:30:58;;;;;;;1.52;1.40;;;20.70;99.90;;;;;;10597799;28;20194;-87
2023/07/27 14:36:31;;;;;;;1.77;1.30;;;20.20;99.90;;;;;;10587263;28;20229;-79
2023/07/27 14:41:52;;;;;;;2.72;1.30;;;20.00;99.90;;;;;;10572346;28;20229;-83
2023/07/27 14:47:14;;;;;;;3.13;1.75;;;19.90;99.90;;;;;;10584200;27;20242;-75
2023/07/27 14:52:36;;;;;;;3.08;2.22;;;19.90;99.90;;;;;;10562835;28;20225;-77
2023/07/27 14:57:57;;;;;;;2.35;1.90;;;19.70;99.90;;;;;;10552961;28;20225;-81
2023/07/27 15:03:19;;;;;;;5.55;1.58;;;19.80;99.90;;;;;;10558434;28;20191;-85
2023/07/27 15:08:42;;;;;;;3.40;1.65;;;20.00;99.90;;;;;;10550871;28;20198;-83
2023/07/27 15:14:03;;;;;;;4.20;1.13;;;20.20;99.90;;;;;;10535975;28;20261;-89
2023/07/27 15:19:25;;;;;;;2.90;1.48;;;20.40;99.90;;;;;;10565392;28;20301;-76
2023/07/27 15:24:46;;;;;;;1.98;1.20;;;20.50;99.90;;;;;;10565686;28;20186;-77
2023/07/27 15:30:07;;;;;;;2.58;1.38;;;20.60;99.90;;;;;;10579493;28;20562;-80
2023/07/27 15:35:33;;;;;;;1.33;1.20;;;20.70;99.90;;;;;;10591603;28;20256;-78
2023/07/27 15:40:55;;;;;;;1.92;1.20;;;20.80;99.90;;;;;;10590342;28;20460;-76
2023/07/27 15:46:17;;;;;;;2.22;1.58;;;20.80;99.90;;;;;;10594735;27;20260;-82
2023/07/27 15:51:38;;;;;;;2.60;1.60;;;20.60;99.90;;;;;;10606076;28;20244;-78
2023/07/27 15:57:00;;;;;;;3.25;1.35;;;20.50;99.90;;;;;;10609484;27;20218;-79
2023/07/27 16:02:21;;;;;;;1.38;1.20;;;20.30;99.90;;;;;;10592074;28;20193;-81
2023/07/27 16:07:42;;;;;;;2.10;1.55;;;20.40;99.90;;;;;;10591372;28;20248;-78
2023/07/27 16:13:03;;;;;;;1.60;1.50;;;20.50;99.90;;;;;;10608377;28;20197;-77
2023/07/27 16:18:25;;;;;;;2.97;2.17;;;20.40;99.90;;;;;;10548522;28;20495;-79
2023/07/27 16:23:46;;;;;;;3.05;1.70;;;20.20;99.90;;;;;;10562394;28;20413;-77
2023/07/27 16:29:07;;;;;;;3.10;1.67;;;20.10;99.90;;;;;;10551782;28;20198;-82
2023/07/27 16:34:29;;;;;;;2.05;1.55;;;20.00;99.90;;;;;;10581439;28;20193;-76
2023/07/27 16:39:52;;;;;;;3.45;1.60;;;20.00;99.90;;;;;;10556779;28;20424;-82
2023/07/27 16:45:13;;;;;;;2.60;1.90;;;20.00;99.90;;;;;;10562342;28;20198;-77
2023/07/27 16:50:35;;;;;;;2.03;1.75;;;19.90;99.90;;;;;;10532890;28;20201;-76
2023/07/27 16:55:57;;;;;;;2.17;1.60;;;19.80;99.90;;;;;;10532678;28;20250;-84
2023/07/27 17:01:19;;;;;;;3.55;2.10;;;19.70;99.90;;;;;;10520279;28;20224;-81
2023/07/27 17:06:41;;;;;;;2.28;2.08;;;19.70;99.90;;;;;;10603400;28;20209;-76
2023/07/27 17:12:04;;;;;;;2.05;1.65;;;19.70;99.90;;;;;;10602838;28;20205;-83
2023/07/27 17:17:25;;;;;;;2.38;1.80;;;19.80;99.90;;;;;;10582409;28;20270;-80
2023/07/27 17:22:46;;;;;;;3.55;1.90;;;19.90;1.00;;;;;;10595969;28;20193;-76
2023/07/27 17:28:07;;;;;;;1.75;1.60;;;20.00;1.00;;;;;;10601410;28;20192;-84
2023/07/27 17:33:29;;;;;;;1.88;1.50;;;20.00;1.00;;;;;;10596409;28;20194;-77
2023/07/27 17:38:50;;;;;;;4.85;2.17;;;19.90;1.00;;;;;;10598249;28;20241;-78
2023/07/27 17:44:11;;;;;;;4.68;1.90;;;19.90;1.00;;;;;;10622813;27;20193;-76
2023/07/27 17:49:33;;;;;;;2.70;1.95;;;19.80;1.00;;;;;;10585253;28;20309;-77
2023/07/27 17:54:54;;;;;;;3.67;2.15;;;19.50;99.90;;;;;;10600320;28;20201;-76
2023/07/27 18:00:16;;;;;;;1.80;1.52;;;19.40;99.90;;;;;;10580174;28;20225;-83
2023/07/27 18:05:38;;;;;;;4.03;2.03;;;19.40;99.90;;;;;;10559487;28;20579;-76
2023/07/27 18:11:01;;;;;;;2.45;2.08;;;19.30;99.90;;;;;;10603626;28;20470;-75
2023/07/27 18:16:22;;;;;;;2.55;2.03;;;19.20;99.90;;;;;;10609095;28;20221;-78
2023/07/27 18:21:43;;;;;;;5.97;4.13;;;19.00;99.90;;;;;;10606960;28;20517;-82
2023/07/27 18:27:04;;;;;;;6.72;4.47;;;18.90;99.90;;;;;;10593958;28;20197;-78
2023/07/27 18:32:26;;;;;;;6.07;4.55;;;18.80;1.00;;;;;;10610414;28;20343;-76
2023/07/27 18:37:47;;;;;;;7.78;5.55;;;18.70;1.00;;;;;;10598786;28;20213;-76
2023/07/27 18:43:08;;;;;;;6.47;4.53;;;18.60;1.00;;;;;;10613075;27;20212;-81
2023/07/27 18:48:29;;;;;;;7.30;4.95;;;18.50;1.00;;;;;;10601539;27;20485;-76
2023/07/27 18:53:51;;;;;;;6.43;3.00;;;18.40;1.00;;;;;;10582958;27;20209;-83
2023/07/27 18:59:12;;;;;;;7.60;4.85;;;18.30;1.00;;;;;;10612715;27;20255;-80
2023/07/27 19:04:33;;;;;;;6.25;4.60;;;18.10;1.00;;;;;;10557310;28;20444;-82
2023/07/27 19:09:55;;;;;;;20.70;12.32;;;18.10;1.00;;;;;;10566873;28;20189;-78
2023/07/27 19:15:17;;;;;;;14.98;6.85;;;17.90;1.00;;;;;;10591108;28;20216;-81
2023/07/27 19:20:38;;;;;;;5.70;3.88;;;17.80;1.00;;;;;;10565881;28;20238;-80
2023/07/27 19:26:00;;;;;;;4.63;3.55;;;17.70;1.00;;;;;;10589762;28;20204;-81
2023/07/27 19:31:22;;;;;;;4.75;3.63;;;17.60;1.00;;;;;;10558989;28;20205;-82
2023/07/27 19:36:44;;;;;;;5.22;3.88;;;17.50;99.90;;;;;;10568604;28;20499;-83
2023/07/27 19:42:09;;;;;;;9.73;5.15;;;17.40;99.90;;;;;;10577297;28;20212;-82
2023/07/27 19:47:30;;;;;;;8.32;5.10;;;17.30;99.90;;;;;;10542946;28;20228;-81
2023/07/27 19:52:52;;;;;;;8.25;4.10;;;17.40;1.00;;;;;;10572662;27;20213;-82
2023/07/27 19:58:13;;;;;;;6.30;3.92;;;17.40;1.00;;;;;;10615270;27;20412;-83
2023/07/27 20:03:34;;;;;;;5.30;3.50;;;17.40;1.00;;;;;;10571361;28;20205;-83
2023/07/27 20:08:56;;;;;;;4.38;3.20;;;17.30;1.00;;;;;;10546164;28;20504;-82
2023/07/27 20:14:17;;;;;;;4.45;3.40;;;17.30;1.00;;;;;;10546607;28;20239;-82
2023/07/27 20:19:52;;;;;;;5.43;3.53;;;17.30;1.00;;;;;;10548340;28;20263;-83
2023/07/27 20:25:14;;;;;;;7.68;3.63;;;17.20;1.00;;;;;;10562948;28;20196;-83
2023/07/27 20:30:35;;;;;;;8.38;4.47;;;17.20;1.00;;;;;;10589753;28;20276;-83
2023/07/27 20:35:57;;;;;;;8.63;4.65;;;17.10;1.00;;;;;;10591975;28;20380;-82
2023/07/27 20:41:18;;;;;;;6.55;4.10;;;17.10;43.60;;;;;;10587276;28;20229;-83
2023/07/27 20:46:39;;;;;;;8.43;3.78;;;17.10;99.90;;;;;;10565183;28;20222;-82
2023/07/27 20:52:00;;;;;;;5.15;3.47;;;17.10;1.00;;;;;;10571793;28;20491;-83
2023/07/27 20:57:22;;;;;;;7.75;4.07;;;16.90;1.00;;;;;;10638812;27;20217;-83
2023/07/27 21:02:43;;;;;;;5.95;3.67;;;16.80;1.00;;;;;;10586403;28;20496;-79
2023/07/27 21:08:07;;;;;;;9.18;5.53;;;16.80;1.00;;;;;;10599262;28;20213;-82
2023/07/27 21:13:29;;;;;;;8.02;5.03;;;16.80;1.00;;;;;;10587528;28;20278;-82
2023/07/27 21:18:50;;;;;;;7.03;4.95;;;16.90;1.00;;;;;;10603726;28;20224;-82
2023/07/27 21:24:13;;;;;;;7.60;4.72;;;16.80;1.00;;;;;;10583834;28;20202;-81
2023/07/27 21:29:34;;;;;;;8.30;4.88;;;16.80;1.00;;;;;;10585033;28;20221;-83
2023/07/27 21:34:56;;;;;;;6.85;4.72;;;16.80;1.00;;;;;;10601719;28;20239;-80
2023/07/27 21:40:17;;;;;;;5.50;3.92;;;16.80;1.00;;;;;;10563036;28;20227;-82
2023/07/27 21:45:39;;;;;;;6.63;3.42;;;16.80;1.00;;;;;;10604152;27;20246;-77
2023/07/27 21:51:00;;;;;;;5.20;4.07;;;16.70;1.00;;;;;;10561524;28;20228;-81
2023/07/27 21:56:21;;;;;;;6.75;6.05;;;16.80;1.00;;;;;;10613876;28;20200;-81
2023/07/27 22:01:42;;;;;;;6.78;5.68;;;16.70;1.00;;;;;;10564941;28;20244;-79
2023/07/27 22:07:03;;;;;;;9.50;6.60;;;16.60;1.00;;;;;;10586544;28;20373;-82
2023/07/27 22:12:25;;;;;;;10.70;7.90;;;16.60;1.00;;;;;;10569928;28;20200;-81
2023/07/27 22:17:48;;;;;;;8.10;5.97;;;16.60;1.00;;;;;;10569530;28;20229;-81
2023/07/27 22:23:10;;;;;;;7.70;4.80;;;16.50;1.00;;;;;;10566582;28;20455;-82
2023/07/27 22:28:31;;;;;;;7.47;5.68;;;16.50;1.00;;;;;;10527974;28;20225;-82
2023/07/27 22:33:52;;;;;;;9.70;6.28;;;16.50;1.00;;;;;;10542112;28;20344;-83
2023/07/27 22:39:14;;;;;;;7.07;4.75;;;16.40;1.00;;;;;;10544790;28;20224;-81
2023/07/27 22:44:36;;;;;;;6.50;4.22;;;16.30;1.00;;;;;;10561563;28;20382;-82
2023/07/27 22:49:57;;;;;;;5.10;3.55;;;16.30;33.80;;;;;;10568212;28;20285;-78
2023/07/27 22:55:19;;;;;;;6.75;3.53;;;16.20;99.90;;;;;;10564113;27;20198;-82
2023/07/27 23:00:40;;;;;;;6.10;3.70;;;16.10;99.90;;;;;;10607855;28;20236;-84
2023/07/27 23:06:02;;;;;;;7.57;3.80;;;16.10;99.90;;;;;;10585455;28;20203;-83
2023/07/27 23:11:23;;;;;;;8.00;3.92;;;16.10;99.90;;;;;;10578405;28;20197;-83
2023/07/27 23:16:44;;;;;;;5.85;3.35;;;16.10;99.90;;;;;;10604413;28;20368;-83
2023/07/27 23:22:06;;;;;;;4.10;3.35;;;16.10;99.90;;;;;;10575151;28;20226;-82
2023/07/27 23:27:28;;;;;;;8.80;3.58;;;16.10;47.40;;;;;;10565192;28;20239;-81
2023/07/27 23:32:49;;;;;;;4.88;3.85;;;16.10;1.00;;;;;;10571361;28;20357;-83
2023/07/27 23:38:10;;;;;;;5.13;3.40;;;16.20;29.40;;;;;;10585417;28;20241;-83
2023/07/27 23:43:32;;;;;;;7.72;3.67;;;16.20;99.90;;;;;;10593276;27;20201;-83
2023/07/27 23:48:53;;;;;;;6.35;3.78;;;16.20;99.90;;;;;;10552714;28;20268;-83
2023/07/27 23:54:14;;;;;;;5.53;3.83;;;16.20;38.60;;;;;;10591666;27;20208;-82
2023/07/27 23:59:35;;;;;;;4.47;3.75;;;16.20;55.90;;;;;;10575383;28;20228;-83
